West Linton, Indiana
Current Conditions -  °F | °C
As of 1:15 PM on Monday 22 Dec 2014 (Local Time) from KDCY Reporting Station
Overcast Overcast  
Wind Chill: 42°   Ceiling: 1600
Heat Index: 47°   Visibility: 10mi
Dew Point: 41°   Wind: 10mph
Humidity: 80%   Direction: 140°SE
Pressure: 29.79"   Gusts: NA
Location:  39.0608°N, 87.1852°W
Report Text: KDCY 221815Z AUTO 14009KT 10SM BKN016 OVC026 08/05 A2979 RMK AO2 T00810048
Loading
Personal Weather Stations






























Interactive Weather Map New forecast layout! Learn more

10-Day Weather Forecast

Advertisements
Track Severe Weather on mobile